Ogre, Latvia
Current Conditions -  °F | °C
As of 10:20 AM on Sunday 26 Oct 2014 (Local Time) from EVRA Reporting Station
Overcast Overcast  
Wind Chill: 27°   Ceiling: 2300
Heat Index: 36°   Visibility: 6mi
Dew Point: 25°   Wind: 13mph
Humidity: 65%   Direction: 170°S
Pressure: 30.27"   Gusts: NA
Location:  56.81°N, 24.61°E
Report Text: EVRA 260720Z 17011KT 9999 OVC023 02/M04 Q1025 R18/090095 NOSIG
Loading
Personal Weather Stations






























Interactive Weather Map
Tropical Storm Tracking
New forecast layout! Learn more

10-Day Weather Forecast

Advertisements
Track Severe Weather on mobile